createdAt,value
2022-12-19T00:01:23.018Z,100095.75
2022-12-19T00:04:12.339Z,100085.59
2022-12-19T00:06:58.856Z,100080.91
2022-12-19T00:09:45.092Z,100082.41
2022-12-19T00:12:31.421Z,100067.41
2022-12-19T00:15:17.650Z,100069.34
2022-12-19T00:18:03.977Z,100036.34
2022-12-19T00:21:02.385Z,100059.78
2022-12-19T00:23:49.416Z,100043.00
2022-12-19T00:26:36.887Z,100071.50
2022-12-19T00:29:23.544Z,100059.97
2022-12-19T00:32:13.329Z,100036.19
2022-12-19T00:35:02.433Z,100064.19
2022-12-19T00:37:49.679Z,100060.38
2022-12-19T00:40:36.372Z,100045.91
2022-12-19T00:43:22.450Z,100031.47
2022-12-19T00:46:11.555Z,100046.22
2022-12-19T00:48:57.632Z,100052.84
2022-12-19T00:51:44.224Z,100049.06
2022-12-19T00:54:30.948Z,100041.34
2022-12-19T00:57:19.539Z,100030.31
2022-12-19T01:00:06.604Z,100013.16
2022-12-19T01:02:53.324Z,100027.59
2022-12-19T01:05:41.245Z,100026.63
2022-12-19T01:08:28.685Z,100019.53
2022-12-19T01:11:15.897Z,100017.84
2022-12-19T01:14:02.110Z,100005.56
2022-12-19T01:16:48.466Z,100012.28
2022-12-19T01:19:38.975Z,100016.56
2022-12-19T01:22:28.665Z,100021.06
2022-12-19T01:25:15.420Z,100017.84
2022-12-19T01:28:02.824Z,100019.56
2022-12-19T01:30:51.892Z,100018.63
2022-12-19T01:33:41.750Z,100027.09
2022-12-19T01:36:30.332Z,100009.75
2022-12-19T01:39:16.835Z,99980.19
2022-12-19T01:42:03.020Z,100010.03
2022-12-19T01:45:19.054Z,99997.34
2022-12-19T01:48:19.342Z,99995.78
2022-12-19T01:51:22.865Z,99983.91
2022-12-19T01:54:13.632Z,99989.38
2022-12-19T01:57:02.588Z,99989.88
2022-12-19T01:59:54.131Z,99961.31
2022-12-19T02:02:46.402Z,99959.75
2022-12-19T02:05:33.901Z,99939.09
2022-12-19T02:08:21.389Z,99932.81
2022-12-19T02:11:08.553Z,99968.41
2022-12-19T02:13:56.074Z,99959.16
2022-12-19T02:17:00.098Z,99941.78
2022-12-19T02:20:14.648Z,99953.09
2022-12-19T02:23:00.837Z,99941.13
2022-12-19T02:26:02.534Z,99940.06
2022-12-19T02:29:22.416Z,99917.72
2022-12-19T02:32:47.556Z,99920.09
2022-12-19T02:35:46.734Z,99926.75
2022-12-19T02:38:39.512Z,99937.13
2022-12-19T02:41:43.037Z,99962.81
2022-12-19T02:44:39.649Z,99939.22
2022-12-19T02:47:27.007Z,99935.13
2022-12-19T02:50:14.446Z,99961.47
2022-12-19T02:53:01.280Z,99932.03
2022-12-19T02:56:12.589Z,99946.09
2022-12-19T02:59:28.231Z,99939.22
2022-12-19T03:02:41.955Z,99946.38
2022-12-19T03:05:36.146Z,99945.31
2022-12-19T03:08:29.820Z,99947.44
2022-12-19T03:11:17.958Z,99922.44
2022-12-19T03:14:12.051Z,99939.97
2022-12-19T03:17:06.553Z,99911.03
2022-12-19T03:19:53.020Z,99926.47
2022-12-19T03:22:39.651Z,99943.56
2022-12-19T03:25:29.905Z,99952.75
2022-12-19T03:28:27.062Z,99952.06
2022-12-19T03:31:15.936Z,99921.75
2022-12-19T03:34:08.553Z,99945.44
2022-12-19T03:36:59.003Z,99952.50
2022-12-19T03:39:50.859Z,99951.72
2022-12-19T03:42:59.045Z,99932.63
2022-12-19T03:45:57.382Z,99940.84
2022-12-19T03:48:45.326Z,99948.91
2022-12-19T03:51:53.727Z,99928.31
2022-12-19T03:54:54.526Z,99930.19
2022-12-19T03:57:59.080Z,99941.72
2022-12-19T04:00:48.413Z,99935.41
2022-12-19T04:03:35.808Z,99941.28
2022-12-19T04:06:22.935Z,99930.31
2022-12-19T04:09:10.222Z,99907.88
2022-12-19T04:12:04.780Z,99940.91
2022-12-19T04:14:51.477Z,99945.69
2022-12-19T04:17:47.188Z,99942.50
2022-12-19T04:20:38.546Z,99912.41
2022-12-19T04:23:49.058Z,99946.94
2022-12-19T04:26:38.196Z,99933.44
2022-12-19T04:29:27.205Z,99947.81
2022-12-19T04:32:14.473Z,99932.31
2022-12-19T04:35:01.337Z,99945.88
2022-12-19T04:37:47.772Z,99943.75
2022-12-19T04:40:40.986Z,99925.03
2022-12-19T04:43:27.690Z,99910.72
2022-12-19T04:46:14.278Z,99948.31
2022-12-19T04:49:01.636Z,99944.63
2022-12-19T04:51:48.085Z,99940.06
2022-12-19T04:54:34.568Z,99937.44
2022-12-19T04:57:21.311Z,99947.69
2022-12-19T05:00:08.725Z,99942.66
2022-12-19T05:02:55.360Z,99921.31
2022-12-19T05:05:42.297Z,99908.28
2022-12-19T05:08:29.368Z,99927.41
2022-12-19T05:11:19.786Z,99906.38
2022-12-19T05:14:06.529Z,99908.63
2022-12-19T05:16:57.340Z,99930.97
2022-12-19T05:19:47.285Z,99908.00
2022-12-19T05:22:33.835Z,99921.78
2022-12-19T05:25:20.265Z,99866.06
2022-12-19T05:28:06.726Z,99905.41
2022-12-19T05:30:52.890Z,99886.31
2022-12-19T05:33:41.018Z,99912.88
2022-12-19T05:36:32.325Z,99888.06
2022-12-19T05:39:19.106Z,99909.78
2022-12-19T05:42:08.446Z,99870.38
2022-12-19T05:44:58.299Z,99899.59
2022-12-19T05:47:48.220Z,99913.69
2022-12-19T05:50:34.835Z,99883.13
2022-12-19T05:53:29.226Z,99900.06
2022-12-19T05:56:21.248Z,99846.81
2022-12-19T05:59:07.586Z,99884.09
2022-12-19T06:01:54.290Z,99900.06
2022-12-19T06:04:40.680Z,99893.47
2022-12-19T06:07:26.989Z,99898.88
2022-12-19T06:10:13.432Z,99866.09
2022-12-19T06:12:59.989Z,99882.75
2022-12-19T06:15:46.274Z,99867.38
2022-12-19T06:18:32.738Z,99891.25
2022-12-19T06:21:22.253Z,99868.78
2022-12-19T06:24:08.716Z,99892.22
2022-12-19T06:26:55.395Z,99893.81
2022-12-19T06:29:41.586Z,99886.47
2022-12-19T06:32:28.131Z,99902.53
2022-12-19T06:35:14.390Z,99867.13
2022-12-19T06:38:01.232Z,99882.66
2022-12-19T06:41:06.121Z,99880.88
2022-12-19T06:43:53.809Z,99880.25
2022-12-19T06:46:41.524Z,99894.72
2022-12-19T06:49:28.378Z,99850.34
2022-12-19T06:52:16.510Z,99877.84
2022-12-19T06:55:02.891Z,99892.13
2022-12-19T06:57:49.411Z,99899.97
2022-12-19T07:00:36.076Z,99866.53
2022-12-19T07:03:25.846Z,99868.81
2022-12-19T07:06:12.563Z,99823.28
2022-12-19T07:08:59.064Z,99861.94
2022-12-19T07:11:45.630Z,99897.09
2022-12-19T07:14:31.806Z,99893.97
2022-12-19T07:17:19.175Z,99847.63
2022-12-19T07:20:06.254Z,99885.44
2022-12-19T07:22:52.944Z,99866.97
2022-12-19T07:25:40.393Z,99873.56
2022-12-19T07:28:26.924Z,99822.22
2022-12-19T07:31:13.407Z,99848.19
2022-12-19T07:33:59.672Z,99900.13
2022-12-19T07:36:46.210Z,99897.44
2022-12-19T07:39:32.407Z,99900.75
2022-12-19T07:42:19.195Z,99905.50
2022-12-19T07:45:05.985Z,99903.88
2022-12-19T07:47:52.297Z,99875.13
2022-12-19T07:50:38.503Z,99881.47
2022-12-19T07:53:25.543Z,99823.59
2022-12-19T07:56:12.098Z,99888.28
2022-12-19T07:58:58.496Z,99888.81
2022-12-19T08:01:44.832Z,99875.16
2022-12-19T08:04:31.223Z,99877.22
2022-12-19T08:07:17.774Z,99872.84
2022-12-19T08:10:04.626Z,99896.50
2022-12-19T08:12:50.881Z,99906.97
2022-12-19T08:15:37.256Z,99895.84
2022-12-19T08:18:23.814Z,99920.09
2022-12-19T08:21:10.790Z,99896.09
2022-12-19T08:23:56.999Z,99915.56
2022-12-19T08:26:47.565Z,99871.66
2022-12-19T08:29:34.319Z,99900.25
2022-12-19T08:32:21.787Z,99910.91
2022-12-19T08:35:09.045Z,99903.44
2022-12-19T08:37:55.564Z,99904.47
2022-12-19T08:40:47.234Z,99904.47
2022-12-19T08:43:34.459Z,99908.09
2022-12-19T08:46:21.987Z,99885.22
2022-12-19T08:49:08.302Z,99891.56
2022-12-19T08:51:54.716Z,99893.78
2022-12-19T08:54:40.959Z,99892.03
2022-12-19T08:57:27.220Z,99891.28
2022-12-19T09:00:13.880Z,99901.03
2022-12-19T09:03:02.828Z,99879.84
2022-12-19T09:06:07.889Z,99889.25
2022-12-19T09:09:00.114Z,99885.56
2022-12-19T09:11:48.238Z,99869.34
2022-12-19T09:14:35.631Z,99882.16
2022-12-19T09:17:21.945Z,99885.16
2022-12-19T09:20:09.180Z,99849.34
2022-12-19T09:22:55.316Z,99883.53
2022-12-19T09:25:41.739Z,99884.56
2022-12-19T09:28:28.479Z,99855.41
2022-12-19T09:31:18.248Z,99879.06
2022-12-19T09:34:04.874Z,99853.09
2022-12-19T09:36:51.131Z,99880.84
2022-12-19T09:39:37.638Z,99859.09
2022-12-19T09:42:55.148Z,99878.22
2022-12-19T09:45:56.624Z,99883.03
2022-12-19T09:48:43.197Z,99880.03
2022-12-19T09:51:44.060Z,99866.06
2022-12-19T09:54:43.768Z,99848.59
2022-12-19T09:57:56.000Z,99871.72
2022-12-19T10:00:45.203Z,99848.81
2022-12-19T10:03:40.505Z,99868.69
2022-12-19T10:07:20.388Z,99853.44
2022-12-19T10:11:41.749Z,99850.88
2022-12-19T10:13:07.660Z,99835.31
2022-12-19T10:16:11.524Z,99847.00
2022-12-19T10:19:02.059Z,99845.19
2022-12-19T10:22:32.172Z,99825.88
2022-12-19T10:25:18.232Z,99852.09
2022-12-19T10:28:32.939Z,99848.97
2022-12-19T10:31:53.957Z,99821.13
2022-12-19T10:34:44.049Z,99820.38
2022-12-19T10:37:47.454Z,99825.72
2022-12-19T10:40:55.275Z,99816.13
2022-12-19T10:44:08.135Z,99821.19
2022-12-19T10:46:54.683Z,99823.25
2022-12-19T10:49:41.152Z,99820.56
2022-12-19T10:52:56.821Z,99802.75
2022-12-19T10:55:47.425Z,99806.25
2022-12-19T10:58:36.217Z,99787.66
2022-12-19T11:01:27.387Z,99783.38
2022-12-19T11:04:26.015Z,99780.63
2022-12-19T11:07:20.393Z,99779.75
2022-12-19T11:12:09.925Z,99775.94
2022-12-19T11:19:15.059Z,99772.75
2022-12-19T11:23:29.859Z,99773.66
2022-12-19T11:29:30.548Z,99768.50
2022-12-19T11:29:34.223Z,99768.00
2022-12-19T11:30:41.630Z,99764.84
2022-12-19T11:33:16.353Z,99760.25
2022-12-19T11:36:06.008Z,99759.38
2022-12-19T11:38:54.222Z,99752.81
2022-12-19T11:41:54.589Z,99748.72
2022-12-19T11:44:58.174Z,99717.03
2022-12-19T11:47:51.888Z,99734.97
2022-12-19T11:51:01.296Z,99739.97
2022-12-19T11:54:29.909Z,99717.84
2022-12-19T11:57:16.423Z,99711.41
2022-12-19T12:00:05.592Z,99724.16
2022-12-19T12:03:03.010Z,99724.00
2022-12-19T12:05:51.490Z,99698.56
2022-12-19T12:11:24.595Z,99722.25
2022-12-19T12:17:58.475Z,99719.25
2022-12-19T12:31:02.599Z,99718.22
2022-12-19T12:31:04.572Z,99722.22
2022-12-19T12:31:58.104Z,99705.38
2022-12-19T12:32:05.783Z,99710.97
2022-12-19T12:35:19.208Z,99696.72
2022-12-19T12:35:31.530Z,99679.09
2022-12-19T12:39:41.384Z,99689.75
2022-12-19T12:42:44.736Z,99688.75
2022-12-19T12:45:36.461Z,99676.63
2022-12-19T12:48:29.029Z,99681.69
2022-12-19T12:51:16.163Z,99673.41
2022-12-19T12:54:07.629Z,99658.81
2022-12-19T12:56:55.461Z,99677.78
2022-12-19T12:59:45.840Z,99678.94
2022-12-19T13:02:33.297Z,99663.72
2022-12-19T13:05:31.861Z,99675.81
2022-12-19T13:08:47.877Z,99687.72
2022-12-19T13:11:56.788Z,99691.31
2022-12-19T13:14:46.105Z,99693.03
2022-12-19T13:17:32.202Z,99684.00
2022-12-19T13:20:18.630Z,99687.81
2022-12-19T13:23:39.896Z,99684.94
2022-12-19T13:26:46.939Z,99678.09
2022-12-19T13:29:53.999Z,99676.69
2022-12-19T13:32:40.519Z,99609.72
2022-12-19T13:36:28.516Z,99670.53
2022-12-19T13:40:00.635Z,99676.06
2022-12-19T13:42:29.502Z,99669.56
2022-12-19T13:45:27.625Z,99682.81
2022-12-19T13:48:18.619Z,99649.09
2022-12-19T13:51:08.427Z,99680.72
2022-12-19T13:53:59.612Z,99657.75
2022-12-19T13:56:46.746Z,99675.91
2022-12-19T13:59:37.127Z,99682.53
2022-12-19T14:02:30.104Z,99684.56
2022-12-19T14:06:17.778Z,99691.91
2022-12-19T14:08:39.976Z,99673.50
2022-12-19T14:12:00.288Z,99646.03
2022-12-19T14:15:13.546Z,99681.78
2022-12-19T14:18:45.400Z,99691.09
2022-12-19T14:22:11.105Z,99692.53
2022-12-19T14:24:34.271Z,99691.22
2022-12-19T14:28:24.035Z,99693.97
2022-12-19T14:30:36.796Z,99678.13
2022-12-19T14:33:45.773Z,99696.66
2022-12-19T14:36:46.978Z,99672.53
2022-12-19T14:39:36.230Z,99698.97
2022-12-19T14:43:57.812Z,99687.47
2022-12-19T14:52:08.329Z,99685.31
2022-12-19T14:53:36.574Z,99703.16
2022-12-19T14:54:35.860Z,99699.91
2022-12-19T14:56:27.662Z,99702.75
2022-12-19T14:59:52.127Z,99694.97
2022-12-19T15:02:43.596Z,99693.75
2022-12-19T15:05:33.499Z,99694.41
2022-12-19T15:09:17.534Z,99687.50
2022-12-19T15:14:04.119Z,99696.44
2022-12-19T15:15:34.361Z,99688.72
2022-12-19T15:18:25.795Z,99660.84
2022-12-19T15:21:14.192Z,99690.72
2022-12-19T15:24:00.665Z,99690.09
2022-12-19T15:26:52.322Z,99681.19
2022-12-19T15:29:38.863Z,99631.03
2022-12-19T15:32:25.231Z,99699.78
2022-12-19T15:35:17.109Z,99700.13
2022-12-19T15:38:03.295Z,99690.13
2022-12-19T15:40:49.842Z,99675.75
2022-12-19T15:44:03.020Z,99688.16
2022-12-19T15:46:48.332Z,99687.06
2022-12-19T15:49:35.432Z,99676.63
2022-12-19T15:52:22.461Z,99671.78
2022-12-19T15:55:13.917Z,99678.25
2022-12-19T15:58:05.046Z,99678.69
2022-12-19T16:00:58.580Z,99682.38
2022-12-19T16:03:45.327Z,99680.47
2022-12-19T16:06:31.694Z,99670.69
2022-12-19T16:09:23.950Z,99673.19
2022-12-19T16:12:19.229Z,99669.44
2022-12-19T16:15:13.153Z,99654.00
2022-12-19T16:18:01.623Z,99656.59
2022-12-19T16:20:48.574Z,99676.66
2022-12-19T16:23:35.090Z,99643.47
2022-12-19T16:26:34.346Z,99667.09
2022-12-19T16:29:23.869Z,99661.38
2022-12-19T16:32:13.597Z,99642.31
2022-12-19T16:34:59.794Z,99649.03
2022-12-19T16:37:46.130Z,99623.50
2022-12-19T16:40:33.088Z,99620.75
2022-12-19T16:43:31.308Z,99620.94
2022-12-19T16:46:20.851Z,99648.25
2022-12-19T16:49:13.811Z,99602.81
2022-12-19T16:52:00.591Z,99624.16
2022-12-19T16:54:46.881Z,99639.78
2022-12-19T16:57:33.464Z,99577.97
2022-12-19T17:00:21.500Z,99646.19
2022-12-19T17:03:18.348Z,99641.63
2022-12-19T17:06:04.821Z,99618.72
2022-12-19T17:08:51.121Z,99582.16
2022-12-19T17:11:45.343Z,99596.25
2022-12-19T17:14:32.089Z,99645.22
2022-12-19T17:17:18.318Z,99627.38
2022-12-19T17:20:05.259Z,99602.69
2022-12-19T17:22:51.564Z,99651.53
2022-12-19T17:25:38.574Z,99596.84
2022-12-19T17:28:24.997Z,99663.50
2022-12-19T17:31:21.726Z,99622.41
2022-12-19T17:34:17.249Z,99637.19
2022-12-19T17:37:05.184Z,99656.38
2022-12-19T17:39:51.453Z,99643.06
2022-12-19T17:42:37.796Z,99675.28
2022-12-19T17:45:27.030Z,99669.81
2022-12-19T17:48:26.229Z,99670.03
2022-12-19T17:51:13.531Z,99671.41
2022-12-19T17:53:59.828Z,99647.63
2022-12-19T17:56:46.964Z,99678.34
2022-12-19T17:59:33.478Z,99678.22
2022-12-19T18:02:22.940Z,99671.09
2022-12-19T18:05:18.779Z,99629.91
2022-12-19T18:08:16.883Z,99621.41
2022-12-19T18:11:07.592Z,99647.59
2022-12-19T18:13:54.260Z,99645.84
2022-12-19T18:16:41.518Z,99663.59
2022-12-19T18:19:32.449Z,99674.28
2022-12-19T18:22:18.980Z,99642.28
2022-12-19T18:25:16.580Z,99637.44
2022-12-19T18:28:02.920Z,99639.56
2022-12-19T18:30:51.117Z,99659.78
2022-12-19T18:33:39.696Z,99667.72
2022-12-19T18:36:29.416Z,99679.13
2022-12-19T18:39:22.817Z,99672.47
2022-12-19T18:42:19.720Z,99623.66
2022-12-19T18:45:06.735Z,99627.22
2022-12-19T18:47:56.320Z,99665.69
2022-12-19T18:50:42.869Z,99641.16
2022-12-19T18:53:35.193Z,99629.75
2022-12-19T18:56:22.361Z,99639.63
2022-12-19T18:59:09.101Z,99662.00
2022-12-19T19:01:55.900Z,99647.41
2022-12-19T19:04:42.655Z,99641.91
2022-12-19T19:07:28.935Z,99653.94
2022-12-19T19:10:29.038Z,99643.81
2022-12-19T19:13:26.061Z,99654.28
2022-12-19T19:16:22.172Z,99655.53
2022-12-19T19:19:13.770Z,99635.00
2022-12-19T19:22:00.259Z,99645.88
2022-12-19T19:24:46.399Z,99646.16
2022-12-19T19:27:32.870Z,99600.84
2022-12-19T19:30:19.547Z,99585.00
2022-12-19T19:33:19.411Z,99595.34
2022-12-19T19:36:12.341Z,99600.66
2022-12-19T19:38:59.312Z,99638.69
2022-12-19T19:41:45.575Z,99584.97
2022-12-19T19:44:32.371Z,99616.63
2022-12-19T19:47:25.208Z,99652.78
2022-12-19T19:50:12.102Z,99609.22
2022-12-19T19:52:58.813Z,99642.47
2022-12-19T19:55:45.012Z,99590.78
2022-12-19T19:58:31.975Z,99583.28
2022-12-19T20:01:18.361Z,99612.91
2022-12-19T20:04:04.938Z,99632.94
2022-12-19T20:06:51.617Z,99648.41
2022-12-19T20:09:37.887Z,99595.47
2022-12-19T20:12:24.630Z,99613.47
2022-12-19T20:15:10.816Z,99634.13
2022-12-19T20:17:56.964Z,99606.81
2022-12-19T20:20:43.411Z,99640.72
2022-12-19T20:23:29.814Z,99634.94
2022-12-19T20:26:16.998Z,99635.34
2022-12-19T20:29:06.373Z,99638.38
2022-12-19T20:31:52.807Z,99647.56
2022-12-19T20:34:39.071Z,99615.31
2022-12-19T20:37:25.706Z,99612.81
2022-12-19T20:40:12.860Z,99589.84
2022-12-19T20:42:59.432Z,99585.56
2022-12-19T20:45:45.673Z,99655.34
2022-12-19T20:48:32.649Z,99645.13
2022-12-19T20:51:20.737Z,99641.78
2022-12-19T20:54:08.607Z,99653.31
2022-12-19T20:56:54.922Z,99630.22
2022-12-19T20:59:41.127Z,99594.41
2022-12-19T21:02:27.920Z,99656.00
2022-12-19T21:05:14.568Z,99641.66
2022-12-19T21:08:01.065Z,99636.16
2022-12-19T21:10:48.256Z,99658.56
2022-12-19T21:13:35.815Z,99650.31
2022-12-19T21:16:23.204Z,99674.53
2022-12-19T21:19:09.852Z,99675.31
2022-12-19T21:21:56.290Z,99640.19
2022-12-19T21:24:42.538Z,99643.47
2022-12-19T21:27:28.780Z,99630.19
2022-12-19T21:30:15.239Z,99660.59
2022-12-19T21:33:01.466Z,99635.88
2022-12-19T21:35:47.794Z,99661.06
2022-12-19T21:38:34.822Z,99665.94
2022-12-19T21:41:21.521Z,99666.75
2022-12-19T21:44:07.965Z,99641.53
2022-12-19T21:46:54.600Z,99637.50
2022-12-19T21:49:40.794Z,99664.88
2022-12-19T21:52:27.374Z,99667.03
2022-12-19T21:55:13.896Z,99638.84
2022-12-19T21:58:00.448Z,99659.63
2022-12-19T22:00:46.965Z,99669.03
2022-12-19T22:03:33.593Z,99651.97
2022-12-19T22:06:27.851Z,99607.03
2022-12-19T22:09:17.903Z,99669.19
2022-12-19T22:12:04.446Z,99643.09
2022-12-19T22:14:50.653Z,99643.09
2022-12-19T22:17:37.128Z,99659.66
2022-12-19T22:20:23.165Z,99641.19
2022-12-19T22:23:13.278Z,99631.53
2022-12-19T22:26:11.998Z,99655.88
2022-12-19T22:28:59.075Z,99658.56
2022-12-19T22:31:46.216Z,99668.53
2022-12-19T22:34:32.841Z,99601.38
2022-12-19T22:37:19.265Z,99628.31
2022-12-19T22:40:06.517Z,99624.94
2022-12-19T22:42:53.010Z,99634.69
2022-12-19T22:45:41.055Z,99659.09
2022-12-19T22:48:27.283Z,99659.38
2022-12-19T22:51:15.294Z,99647.34
2022-12-19T22:54:02.024Z,99621.13
2022-12-19T22:56:51.657Z,99643.78
2022-12-19T22:59:38.230Z,99639.81
2022-12-19T23:02:24.721Z,99641.66
2022-12-19T23:05:11.348Z,99635.00
2022-12-19T23:07:57.596Z,99632.09
2022-12-19T23:10:44.136Z,99641.88
2022-12-19T23:13:30.260Z,99591.03
2022-12-19T23:16:17.163Z,99642.44
2022-12-19T23:19:04.873Z,99638.78
2022-12-19T23:21:51.128Z,99612.22
2022-12-19T23:24:37.422Z,99639.16
2022-12-19T23:27:24.025Z,99642.00
2022-12-19T23:30:11.292Z,99645.13
2022-12-19T23:32:57.580Z,99652.97
2022-12-19T23:35:44.018Z,99597.22
2022-12-19T23:38:30.794Z,99643.47
2022-12-19T23:41:17.391Z,99618.50
2022-12-19T23:44:21.191Z,99628.69
2022-12-19T23:47:07.639Z,99604.00
2022-12-19T23:49:54.043Z,99609.38
2022-12-19T23:52:41.787Z,99621.19
2022-12-19T23:55:28.047Z,99581.88
2022-12-19T23:58:19.155Z,99595.16
